sensor_id;sensor_type;location;lat;lon;timestamp;P1;durP1;ratioP1;P2;durP2;ratioP2
55487;SDS011;41352;53.158;6.788;2022-11-15T00:00:46;21.85;;;13.82;;
55487;SDS011;41352;53.158;6.788;2022-11-15T00:03:16;20.02;;;13.38;;
55487;SDS011;41352;53.158;6.788;2022-11-15T00:08:10;21.30;;;14.80;;
55487;SDS011;41352;53.158;6.788;2022-11-15T00:10:36;22.13;;;15.27;;
55487;SDS011;41352;53.158;6.788;2022-11-15T00:13:12;23.80;;;15.02;;
55487;SDS011;41352;53.158;6.788;2022-11-15T00:15:38;22.67;;;14.55;;
55487;SDS011;41352;53.158;6.788;2022-11-15T00:18:05;20.05;;;13.05;;
55487;SDS011;41352;53.158;6.788;2022-11-15T00:20:36;18.50;;;12.52;;
55487;SDS011;41352;53.158;6.788;2022-11-15T00:23:05;24.48;;;15.05;;
55487;SDS011;41352;53.158;6.788;2022-11-15T00:25:31;18.73;;;12.57;;
55487;SDS011;41352;53.158;6.788;2022-11-15T00:27:57;20.40;;;12.70;;
55487;SDS011;41352;53.158;6.788;2022-11-15T00:30:24;19.60;;;13.55;;
55487;SDS011;41352;53.158;6.788;2022-11-15T00:32:50;21.50;;;12.82;;
55487;SDS011;41352;53.158;6.788;2022-11-15T00:35:16;21.10;;;13.88;;
55487;SDS011;41352;53.158;6.788;2022-11-15T00:40:11;20.85;;;13.55;;
55487;SDS011;41352;53.158;6.788;2022-11-15T00:42:40;21.05;;;13.15;;
55487;SDS011;41352;53.158;6.788;2022-11-15T00:45:06;23.92;;;14.15;;
55487;SDS011;41352;53.158;6.788;2022-11-15T00:47:32;24.42;;;15.20;;
55487;SDS011;41352;53.158;6.788;2022-11-15T00:49:58;18.92;;;13.55;;
55487;SDS011;41352;53.158;6.788;2022-11-15T00:52:24;25.90;;;15.13;;
55487;SDS011;41352;53.158;6.788;2022-11-15T00:54:49;19.10;;;13.60;;
55487;SDS011;41352;53.158;6.788;2022-11-15T00:57:15;19.08;;;14.00;;
55487;SDS011;41352;53.158;6.788;2022-11-15T00:59:40;20.80;;;14.82;;
55487;SDS011;41352;53.158;6.788;2022-11-15T01:02:10;27.88;;;14.63;;
55487;SDS011;41352;53.158;6.788;2022-11-15T01:04:36;22.73;;;14.38;;
55487;SDS011;41352;53.158;6.788;2022-11-15T01:07:01;19.40;;;13.27;;
55487;SDS011;41352;53.158;6.788;2022-11-15T01:09:27;21.42;;;15.10;;
55487;SDS011;41352;53.158;6.788;2022-11-15T01:11:53;21.90;;;13.50;;
55487;SDS011;41352;53.158;6.788;2022-11-15T01:14:18;23.15;;;14.80;;
55487;SDS011;41352;53.158;6.788;2022-11-15T01:16:44;20.88;;;14.25;;
55487;SDS011;41352;53.158;6.788;2022-11-15T01:19:10;18.80;;;12.48;;
55487;SDS011;41352;53.158;6.788;2022-11-15T01:21:35;22.10;;;13.73;;
55487;SDS011;41352;53.158;6.788;2022-11-15T01:24:01;26.17;;;14.75;;
55487;SDS011;41352;53.158;6.788;2022-11-15T01:26:27;20.60;;;13.30;;
55487;SDS011;41352;53.158;6.788;2022-11-15T01:28:52;23.05;;;15.10;;
55487;SDS011;41352;53.158;6.788;2022-11-15T01:31:19;25.95;;;16.25;;
55487;SDS011;41352;53.158;6.788;2022-11-15T01:33:46;23.77;;;15.68;;
55487;SDS011;41352;53.158;6.788;2022-11-15T01:36:14;32.55;;;17.25;;
55487;SDS011;41352;53.158;6.788;2022-11-15T01:38:45;26.13;;;15.70;;
55487;SDS011;41352;53.158;6.788;2022-11-15T01:41:18;28.23;;;15.75;;
55487;SDS011;41352;53.158;6.788;2022-11-15T01:43:48;27.67;;;15.65;;
55487;SDS011;41352;53.158;6.788;2022-11-15T01:49:03;27.60;;;14.93;;
55487;SDS011;41352;53.158;6.788;2022-11-15T01:51:36;25.08;;;15.65;;
55487;SDS011;41352;53.158;6.788;2022-11-15T01:54:04;28.65;;;15.55;;
55487;SDS011;41352;53.158;6.788;2022-11-15T01:56:36;25.67;;;15.48;;
55487;SDS011;41352;53.158;6.788;2022-11-15T01:59:06;23.98;;;13.82;;
55487;SDS011;41352;53.158;6.788;2022-11-15T02:01:33;28.65;;;15.82;;
55487;SDS011;41352;53.158;6.788;2022-11-15T02:04:16;26.23;;;15.50;;
55487;SDS011;41352;53.158;6.788;2022-11-15T02:06:46;26.33;;;15.57;;
55487;SDS011;41352;53.158;6.788;2022-11-15T02:09:13;24.73;;;15.25;;
55487;SDS011;41352;53.158;6.788;2022-11-15T02:11:39;26.85;;;15.18;;
55487;SDS011;41352;53.158;6.788;2022-11-15T02:14:05;23.63;;;14.25;;
55487;SDS011;41352;53.158;6.788;2022-11-15T02:21:50;25.05;;;14.50;;
55487;SDS011;41352;53.158;6.788;2022-11-15T02:40:33;24.67;;;15.27;;
55487;SDS011;41352;53.158;6.788;2022-11-15T02:43:11;25.15;;;13.90;;
55487;SDS011;41352;53.158;6.788;2022-11-15T02:46:02;25.80;;;14.40;;
55487;SDS011;41352;53.158;6.788;2022-11-15T02:48:37;25.05;;;13.48;;
55487;SDS011;41352;53.158;6.788;2022-11-15T02:51:04;24.27;;;13.85;;
55487;SDS011;41352;53.158;6.788;2022-11-15T02:53:30;25.10;;;14.60;;
55487;SDS011;41352;53.158;6.788;2022-11-15T02:55:56;29.20;;;14.85;;
55487;SDS011;41352;53.158;6.788;2022-11-15T03:01:04;25.83;;;15.38;;
55487;SDS011;41352;53.158;6.788;2022-11-15T03:09:12;21.70;;;12.70;;
55487;SDS011;41352;53.158;6.788;2022-11-15T03:11:52;25.75;;;14.95;;
55487;SDS011;41352;53.158;6.788;2022-11-15T03:14:35;23.70;;;14.68;;
55487;SDS011;41352;53.158;6.788;2022-11-15T03:19:56;22.52;;;14.20;;
55487;SDS011;41352;53.158;6.788;2022-11-15T03:22:25;24.48;;;16.10;;
55487;SDS011;41352;53.158;6.788;2022-11-15T03:24:55;23.65;;;12.85;;
55487;SDS011;41352;53.158;6.788;2022-11-15T03:27:25;22.13;;;12.38;;
55487;SDS011;41352;53.158;6.788;2022-11-15T03:29:57;24.73;;;15.93;;
55487;SDS011;41352;53.158;6.788;2022-11-15T03:32:26;20.60;;;12.50;;
55487;SDS011;41352;53.158;6.788;2022-11-15T03:34:57;25.45;;;14.20;;
55487;SDS011;41352;53.158;6.788;2022-11-15T03:37:32;24.02;;;13.82;;
55487;SDS011;41352;53.158;6.788;2022-11-15T03:40:10;18.47;;;12.50;;
55487;SDS011;41352;53.158;6.788;2022-11-15T03:42:38;31.50;;;15.02;;
55487;SDS011;41352;53.158;6.788;2022-11-15T03:45:14;22.98;;;12.95;;
55487;SDS011;41352;53.158;6.788;2022-11-15T03:52:55;24.48;;;13.43;;
55487;SDS011;41352;53.158;6.788;2022-11-15T03:55:22;26.98;;;13.48;;
55487;SDS011;41352;53.158;6.788;2022-11-15T03:57:49;27.23;;;14.00;;
55487;SDS011;41352;53.158;6.788;2022-11-15T04:00:17;26.60;;;15.32;;
55487;SDS011;41352;53.158;6.788;2022-11-15T04:02:45;32.30;;;14.82;;
55487;SDS011;41352;53.158;6.788;2022-11-15T04:05:11;32.15;;;16.05;;
55487;SDS011;41352;53.158;6.788;2022-11-15T04:07:36;33.22;;;15.23;;
55487;SDS011;41352;53.158;6.788;2022-11-15T04:10:02;28.10;;;14.63;;
55487;SDS011;41352;53.158;6.788;2022-11-15T04:12:32;28.90;;;15.05;;
55487;SDS011;41352;53.158;6.788;2022-11-15T04:15:00;30.02;;;16.95;;
55487;SDS011;41352;53.158;6.788;2022-11-15T04:20:24;39.95;;;17.50;;
55487;SDS011;41352;53.158;6.788;2022-11-15T04:23:14;31.08;;;15.70;;
55487;SDS011;41352;53.158;6.788;2022-11-15T04:26:24;27.77;;;15.10;;
55487;SDS011;41352;53.158;6.788;2022-11-15T04:28:49;32.95;;;16.55;;
55487;SDS011;41352;53.158;6.788;2022-11-15T04:31:33;30.30;;;16.70;;
55487;SDS011;41352;53.158;6.788;2022-11-15T04:33:59;35.75;;;16.95;;
55487;SDS011;41352;53.158;6.788;2022-11-15T04:36:25;31.88;;;16.40;;
55487;SDS011;41352;53.158;6.788;2022-11-15T04:39:10;32.58;;;16.70;;
55487;SDS011;41352;53.158;6.788;2022-11-15T04:41:36;31.73;;;16.98;;
55487;SDS011;41352;53.158;6.788;2022-11-15T04:44:01;26.10;;;14.13;;
55487;SDS011;41352;53.158;6.788;2022-11-15T04:46:27;33.97;;;15.70;;
55487;SDS011;41352;53.158;6.788;2022-11-15T04:48:53;30.58;;;16.33;;
55487;SDS011;41352;53.158;6.788;2022-11-15T04:51:19;34.83;;;17.95;;
55487;SDS011;41352;53.158;6.788;2022-11-15T04:53:45;29.98;;;16.75;;
55487;SDS011;41352;53.158;6.788;2022-11-15T04:56:11;31.63;;;16.73;;
55487;SDS011;41352;53.158;6.788;2022-11-15T04:58:37;33.45;;;16.88;;
55487;SDS011;41352;53.158;6.788;2022-11-15T05:01:09;27.70;;;15.25;;
55487;SDS011;41352;53.158;6.788;2022-11-15T05:03:39;33.45;;;17.58;;
55487;SDS011;41352;53.158;6.788;2022-11-15T05:06:06;30.40;;;15.90;;
55487;SDS011;41352;53.158;6.788;2022-11-15T05:08:32;34.80;;;17.02;;
55487;SDS011;41352;53.158;6.788;2022-11-15T05:10:58;30.90;;;17.83;;
55487;SDS011;41352;53.158;6.788;2022-11-15T05:13:24;34.90;;;17.33;;
55487;SDS011;41352;53.158;6.788;2022-11-15T05:15:49;28.88;;;17.80;;
55487;SDS011;41352;53.158;6.788;2022-11-15T05:18:15;35.33;;;18.48;;
55487;SDS011;41352;53.158;6.788;2022-11-15T05:20:41;36.10;;;19.02;;
55487;SDS011;41352;53.158;6.788;2022-11-15T05:23:10;43.72;;;18.90;;
55487;SDS011;41352;53.158;6.788;2022-11-15T05:25:36;43.95;;;19.15;;
55487;SDS011;41352;53.158;6.788;2022-11-15T05:28:02;33.60;;;18.35;;
55487;SDS011;41352;53.158;6.788;2022-11-15T05:30:28;42.05;;;19.70;;
55487;SDS011;41352;53.158;6.788;2022-11-15T05:32:54;36.30;;;19.42;;
55487;SDS011;41352;53.158;6.788;2022-11-15T05:35:31;37.03;;;17.80;;
55487;SDS011;41352;53.158;6.788;2022-11-15T05:38:06;37.40;;;19.42;;
55487;SDS011;41352;53.158;6.788;2022-11-15T05:40:32;41.92;;;19.42;;
55487;SDS011;41352;53.158;6.788;2022-11-15T05:42:59;35.15;;;20.33;;
55487;SDS011;41352;53.158;6.788;2022-11-15T05:45:27;39.17;;;20.65;;
55487;SDS011;41352;53.158;6.788;2022-11-15T05:47:54;42.97;;;19.73;;
55487;SDS011;41352;53.158;6.788;2022-11-15T05:50:21;38.42;;;21.08;;
55487;SDS011;41352;53.158;6.788;2022-11-15T05:52:47;43.83;;;22.48;;
55487;SDS011;41352;53.158;6.788;2022-11-15T05:55:13;42.03;;;20.45;;
55487;SDS011;41352;53.158;6.788;2022-11-15T05:57:39;47.13;;;24.08;;
55487;SDS011;41352;53.158;6.788;2022-11-15T06:00:05;39.17;;;21.90;;
55487;SDS011;41352;53.158;6.788;2022-11-15T06:02:33;43.35;;;24.13;;
55487;SDS011;41352;53.158;6.788;2022-11-15T06:04:58;47.28;;;23.65;;
55487;SDS011;41352;53.158;6.788;2022-11-15T06:07:24;47.45;;;25.20;;
55487;SDS011;41352;53.158;6.788;2022-11-15T06:09:50;40.08;;;22.48;;
55487;SDS011;41352;53.158;6.788;2022-11-15T06:12:15;46.17;;;23.77;;
55487;SDS011;41352;53.158;6.788;2022-11-15T06:14:41;62.33;;;27.75;;
55487;SDS011;41352;53.158;6.788;2022-11-15T06:17:06;51.15;;;25.00;;
55487;SDS011;41352;53.158;6.788;2022-11-15T06:19:32;59.38;;;26.67;;
55487;SDS011;41352;53.158;6.788;2022-11-15T06:21:58;43.47;;;22.60;;
55487;SDS011;41352;53.158;6.788;2022-11-15T06:24:24;49.38;;;23.67;;
55487;SDS011;41352;53.158;6.788;2022-11-15T06:26:50;45.95;;;25.23;;
55487;SDS011;41352;53.158;6.788;2022-11-15T06:29:16;46.58;;;24.85;;
55487;SDS011;41352;53.158;6.788;2022-11-15T06:31:45;55.08;;;26.35;;
55487;SDS011;41352;53.158;6.788;2022-11-15T06:34:11;44.95;;;23.23;;
55487;SDS011;41352;53.158;6.788;2022-11-15T06:36:36;38.92;;;23.45;;
55487;SDS011;41352;53.158;6.788;2022-11-15T06:39:03;41.33;;;25.00;;
55487;SDS011;41352;53.158;6.788;2022-11-15T06:41:29;55.60;;;25.90;;
55487;SDS011;41352;53.158;6.788;2022-11-15T06:43:56;43.58;;;24.33;;
55487;SDS011;41352;53.158;6.788;2022-11-15T06:46:22;40.88;;;22.10;;
55487;SDS011;41352;53.158;6.788;2022-11-15T06:48:50;40.63;;;22.67;;
55487;SDS011;41352;53.158;6.788;2022-11-15T06:51:16;39.40;;;22.00;;
55487;SDS011;41352;53.158;6.788;2022-11-15T06:53:45;47.80;;;25.58;;
55487;SDS011;41352;53.158;6.788;2022-11-15T06:56:11;37.78;;;20.35;;
55487;SDS011;41352;53.158;6.788;2022-11-15T06:58:37;37.20;;;20.40;;
55487;SDS011;41352;53.158;6.788;2022-11-15T07:01:07;34.00;;;21.83;;
55487;SDS011;41352;53.158;6.788;2022-11-15T07:03:35;35.53;;;23.20;;
55487;SDS011;41352;53.158;6.788;2022-11-15T07:06:01;34.67;;;20.75;;
55487;SDS011;41352;53.158;6.788;2022-11-15T07:08:28;37.17;;;19.75;;
55487;SDS011;41352;53.158;6.788;2022-11-15T07:10:59;37.17;;;20.40;;
55487;SDS011;41352;53.158;6.788;2022-11-15T07:13:27;36.38;;;20.88;;
55487;SDS011;41352;53.158;6.788;2022-11-15T07:15:54;34.80;;;21.02;;
55487;SDS011;41352;53.158;6.788;2022-11-15T07:18:20;35.45;;;18.75;;
55487;SDS011;41352;53.158;6.788;2022-11-15T07:20:46;38.13;;;18.45;;
55487;SDS011;41352;53.158;6.788;2022-11-15T07:23:12;30.98;;;19.25;;
55487;SDS011;41352;53.158;6.788;2022-11-15T07:25:37;39.35;;;21.70;;
55487;SDS011;41352;53.158;6.788;2022-11-15T07:28:03;32.28;;;18.15;;
55487;SDS011;41352;53.158;6.788;2022-11-15T07:30:29;29.85;;;19.92;;
55487;SDS011;41352;53.158;6.788;2022-11-15T07:32:55;28.50;;;17.55;;
55487;SDS011;41352;53.158;6.788;2022-11-15T07:35:22;27.83;;;18.23;;
55487;SDS011;41352;53.158;6.788;2022-11-15T07:37:54;33.38;;;19.20;;
55487;SDS011;41352;53.158;6.788;2022-11-15T07:40:26;28.58;;;17.63;;
55487;SDS011;41352;53.158;6.788;2022-11-15T07:43:00;35.08;;;18.60;;
55487;SDS011;41352;53.158;6.788;2022-11-15T07:45:26;31.77;;;19.07;;
55487;SDS011;41352;53.158;6.788;2022-11-15T07:47:52;32.50;;;17.15;;
55487;SDS011;41352;53.158;6.788;2022-11-15T07:50:18;29.20;;;18.83;;
55487;SDS011;41352;53.158;6.788;2022-11-15T07:52:45;29.38;;;17.45;;
55487;SDS011;41352;53.158;6.788;2022-11-15T07:55:11;29.83;;;18.23;;
55487;SDS011;41352;53.158;6.788;2022-11-15T07:57:37;31.38;;;17.35;;
55487;SDS011;41352;53.158;6.788;2022-11-15T08:00:03;25.45;;;17.00;;
55487;SDS011;41352;53.158;6.788;2022-11-15T08:02:30;29.65;;;17.48;;
55487;SDS011;41352;53.158;6.788;2022-11-15T08:04:55;25.58;;;15.85;;
55487;SDS011;41352;53.158;6.788;2022-11-15T08:07:21;26.70;;;16.58;;
55487;SDS011;41352;53.158;6.788;2022-11-15T08:09:47;32.50;;;16.02;;
55487;SDS011;41352;53.158;6.788;2022-11-15T08:12:14;25.17;;;16.33;;
55487;SDS011;41352;53.158;6.788;2022-11-15T08:14:39;23.75;;;16.00;;
55487;SDS011;41352;53.158;6.788;2022-11-15T08:17:05;24.98;;;15.10;;
55487;SDS011;41352;53.158;6.788;2022-11-15T08:19:31;27.67;;;17.75;;
55487;SDS011;41352;53.158;6.788;2022-11-15T08:21:57;23.30;;;14.95;;
55487;SDS011;41352;53.158;6.788;2022-11-15T08:24:23;24.63;;;15.50;;
55487;SDS011;41352;53.158;6.788;2022-11-15T08:26:49;22.38;;;14.93;;
55487;SDS011;41352;53.158;6.788;2022-11-15T08:29:14;28.35;;;16.65;;
55487;SDS011;41352;53.158;6.788;2022-11-15T08:31:41;28.45;;;17.55;;
55487;SDS011;41352;53.158;6.788;2022-11-15T08:34:10;22.92;;;15.05;;
55487;SDS011;41352;53.158;6.788;2022-11-15T08:36:36;24.02;;;16.25;;
55487;SDS011;41352;53.158;6.788;2022-11-15T08:39:02;24.75;;;15.80;;
55487;SDS011;41352;53.158;6.788;2022-11-15T08:41:30;24.77;;;15.93;;
55487;SDS011;41352;53.158;6.788;2022-11-15T08:43:58;25.15;;;16.92;;
55487;SDS011;41352;53.158;6.788;2022-11-15T08:46:24;24.20;;;14.63;;
55487;SDS011;41352;53.158;6.788;2022-11-15T08:48:50;23.05;;;14.20;;
55487;SDS011;41352;53.158;6.788;2022-11-15T08:51:15;23.27;;;15.32;;
55487;SDS011;41352;53.158;6.788;2022-11-15T08:56:32;20.48;;;14.45;;
55487;SDS011;41352;53.158;6.788;2022-11-15T08:58:57;21.50;;;14.80;;
55487;SDS011;41352;53.158;6.788;2022-11-15T09:01:23;23.85;;;15.10;;
55487;SDS011;41352;53.158;6.788;2022-11-15T09:03:49;20.23;;;13.23;;
55487;SDS011;41352;53.158;6.788;2022-11-15T09:06:14;25.92;;;15.38;;
55487;SDS011;41352;53.158;6.788;2022-11-15T09:08:40;23.63;;;15.15;;
55487;SDS011;41352;53.158;6.788;2022-11-15T09:11:07;18.35;;;12.85;;
55487;SDS011;41352;53.158;6.788;2022-11-15T09:13:35;20.83;;;14.32;;
55487;SDS011;41352;53.158;6.788;2022-11-15T09:16:04;24.83;;;14.52;;
55487;SDS011;41352;53.158;6.788;2022-11-15T09:18:30;20.27;;;13.32;;
55487;SDS011;41352;53.158;6.788;2022-11-15T09:20:59;21.15;;;14.20;;
55487;SDS011;41352;53.158;6.788;2022-11-15T09:23:27;19.67;;;13.15;;
55487;SDS011;41352;53.158;6.788;2022-11-15T09:25:57;17.98;;;13.35;;
55487;SDS011;41352;53.158;6.788;2022-11-15T09:28:25;18.23;;;12.02;;
55487;SDS011;41352;53.158;6.788;2022-11-15T09:30:50;22.77;;;12.55;;
55487;SDS011;41352;53.158;6.788;2022-11-15T09:33:16;21.35;;;14.90;;
55487;SDS011;41352;53.158;6.788;2022-11-15T09:38:14;16.70;;;11.35;;
55487;SDS011;41352;53.158;6.788;2022-11-15T09:40:40;21.77;;;14.68;;
55487;SDS011;41352;53.158;6.788;2022-11-15T09:45:34;18.23;;;13.45;;
55487;SDS011;41352;53.158;6.788;2022-11-15T09:56:38;18.75;;;12.75;;
55487;SDS011;41352;53.158;6.788;2022-11-15T10:04:37;17.20;;;12.00;;
55487;SDS011;41352;53.158;6.788;2022-11-15T10:12:10;17.10;;;12.10;;
55487;SDS011;41352;53.158;6.788;2022-11-15T10:14:39;17.95;;;12.30;;
55487;SDS011;41352;53.158;6.788;2022-11-15T10:22:47;17.92;;;12.90;;
55487;SDS011;41352;53.158;6.788;2022-11-15T10:25:17;14.38;;;11.48;;
55487;SDS011;41352;53.158;6.788;2022-11-15T10:27:47;17.40;;;14.10;;
55487;SDS011;41352;53.158;6.788;2022-11-15T10:30:18;15.63;;;11.82;;
55487;SDS011;41352;53.158;6.788;2022-11-15T10:32:45;17.35;;;12.93;;
55487;SDS011;41352;53.158;6.788;2022-11-15T10:38:09;16.15;;;12.77;;
55487;SDS011;41352;53.158;6.788;2022-11-15T10:40:36;16.38;;;13.30;;
55487;SDS011;41352;53.158;6.788;2022-11-15T10:45:35;19.23;;;13.95;;
55487;SDS011;41352;53.158;6.788;2022-11-15T10:50:40;20.88;;;14.73;;
55487;SDS011;41352;53.158;6.788;2022-11-15T10:53:12;19.83;;;14.57;;
55487;SDS011;41352;53.158;6.788;2022-11-15T10:55:40;19.77;;;14.77;;
55487;SDS011;41352;53.158;6.788;2022-11-15T10:58:34;21.95;;;14.73;;
55487;SDS011;41352;53.158;6.788;2022-11-15T11:01:16;18.88;;;14.77;;
55487;SDS011;41352;53.158;6.788;2022-11-15T11:03:57;18.08;;;13.52;;
55487;SDS011;41352;53.158;6.788;2022-11-15T11:06:24;18.58;;;14.98;;
55487;SDS011;41352;53.158;6.788;2022-11-15T11:08:57;18.83;;;15.07;;
55487;SDS011;41352;53.158;6.788;2022-11-15T11:11:25;19.60;;;14.10;;
55487;SDS011;41352;53.158;6.788;2022-11-15T11:14:11;19.95;;;14.32;;
55487;SDS011;41352;53.158;6.788;2022-11-15T11:16:41;17.98;;;14.50;;
55487;SDS011;41352;53.158;6.788;2022-11-15T11:26:57;19.77;;;15.43;;
55487;SDS011;41352;53.158;6.788;2022-11-15T11:35:35;15.50;;;13.45;;
55487;SDS011;41352;53.158;6.788;2022-11-15T11:38:21;18.02;;;14.30;;
55487;SDS011;41352;53.158;6.788;2022-11-15T11:49:10;14.70;;;12.75;;
55487;SDS011;41352;53.158;6.788;2022-11-15T11:51:42;14.55;;;11.77;;
55487;SDS011;41352;53.158;6.788;2022-11-15T11:54:31;14.95;;;11.68;;
55487;SDS011;41352;53.158;6.788;2022-11-15T11:57:01;14.55;;;10.32;;
55487;SDS011;41352;53.158;6.788;2022-11-15T12:05:10;11.18;;;8.90;;
55487;SDS011;41352;53.158;6.788;2022-11-15T12:07:47;10.02;;;8.52;;
55487;SDS011;41352;53.158;6.788;2022-11-15T12:18:00;8.82;;;5.55;;
55487;SDS011;41352;53.158;6.788;2022-11-15T12:20:27;6.88;;;5.95;;
55487;SDS011;41352;53.158;6.788;2022-11-15T12:28:13;9.23;;;5.03;;
55487;SDS011;41352;53.158;6.788;2022-11-15T12:31:01;6.30;;;4.65;;
55487;SDS011;41352;53.158;6.788;2022-11-15T12:33:39;4.80;;;4.28;;
55487;SDS011;41352;53.158;6.788;2022-11-15T12:36:12;5.55;;;3.95;;
55487;SDS011;41352;53.158;6.788;2022-11-15T12:39:03;7.15;;;3.75;;
55487;SDS011;41352;53.158;6.788;2022-11-15T12:41:35;6.93;;;3.78;;
55487;SDS011;41352;53.158;6.788;2022-11-15T12:44:03;4.55;;;4.15;;
55487;SDS011;41352;53.158;6.788;2022-11-15T12:48:59;4.47;;;3.25;;
55487;SDS011;41352;53.158;6.788;2022-11-15T13:05:56;4.78;;;2.63;;
55487;SDS011;41352;53.158;6.788;2022-11-15T13:22:51;5.00;;;3.65;;
55487;SDS011;41352;53.158;6.788;2022-11-15T13:30:40;4.07;;;3.05;;
55487;SDS011;41352;53.158;6.788;2022-11-15T13:33:14;6.18;;;3.35;;
55487;SDS011;41352;53.158;6.788;2022-11-15T13:35:46;4.70;;;3.23;;
55487;SDS011;41352;53.158;6.788;2022-11-15T13:38:34;4.03;;;2.50;;
55487;SDS011;41352;53.158;6.788;2022-11-15T13:41:17;3.15;;;2.75;;
55487;SDS011;41352;53.158;6.788;2022-11-15T13:43:45;5.93;;;2.50;;
55487;SDS011;41352;53.158;6.788;2022-11-15T13:46:13;4.20;;;2.47;;
55487;SDS011;41352;53.158;6.788;2022-11-15T13:49:01;2.50;;;1.90;;
55487;SDS011;41352;53.158;6.788;2022-11-15T13:51:43;9.13;;;3.33;;
55487;SDS011;41352;53.158;6.788;2022-11-15T14:02:12;4.75;;;1.83;;
55487;SDS011;41352;53.158;6.788;2022-11-15T14:07:15;4.15;;;1.95;;
55487;SDS011;41352;53.158;6.788;2022-11-15T14:09:46;2.83;;;1.83;;
55487;SDS011;41352;53.158;6.788;2022-11-15T14:14:49;2.72;;;1.65;;
55487;SDS011;41352;53.158;6.788;2022-11-15T14:17:18;3.00;;;1.75;;
55487;SDS011;41352;53.158;6.788;2022-11-15T14:19:45;3.85;;;2.65;;
55487;SDS011;41352;53.158;6.788;2022-11-15T14:22:21;2.42;;;1.80;;
55487;SDS011;41352;53.158;6.788;2022-11-15T14:30:49;4.60;;;2.25;;
55487;SDS011;41352;53.158;6.788;2022-11-15T14:33:21;4.50;;;2.22;;
55487;SDS011;41352;53.158;6.788;2022-11-15T14:35:50;2.28;;;1.83;;
55487;SDS011;41352;53.158;6.788;2022-11-15T14:38:17;1.80;;;1.67;;
55487;SDS011;41352;53.158;6.788;2022-11-15T14:40:46;2.10;;;1.80;;
55487;SDS011;41352;53.158;6.788;2022-11-15T14:43:12;2.40;;;1.98;;
55487;SDS011;41352;53.158;6.788;2022-11-15T14:45:38;2.47;;;1.58;;
55487;SDS011;41352;53.158;6.788;2022-11-15T14:48:04;3.85;;;2.35;;
55487;SDS011;41352;53.158;6.788;2022-11-15T14:50:30;4.85;;;2.05;;
55487;SDS011;41352;53.158;6.788;2022-11-15T14:52:57;3.10;;;1.58;;
55487;SDS011;41352;53.158;6.788;2022-11-15T14:55:24;2.50;;;1.38;;
55487;SDS011;41352;53.158;6.788;2022-11-15T14:57:57;4.65;;;1.77;;
55487;SDS011;41352;53.158;6.788;2022-11-15T15:00:23;2.13;;;1.50;;
55487;SDS011;41352;53.158;6.788;2022-11-15T15:02:50;2.25;;;1.77;;
55487;SDS011;41352;53.158;6.788;2022-11-15T15:05:22;2.45;;;1.77;;
55487;SDS011;41352;53.158;6.788;2022-11-15T15:07:50;8.73;;;2.53;;
55487;SDS011;41352;53.158;6.788;2022-11-15T15:10:18;4.07;;;2.35;;
55487;SDS011;41352;53.158;6.788;2022-11-15T15:18:11;4.88;;;2.00;;
55487;SDS011;41352;53.158;6.788;2022-11-15T15:20:38;5.55;;;2.25;;
55487;SDS011;41352;53.158;6.788;2022-11-15T15:23:09;2.45;;;2.13;;
55487;SDS011;41352;53.158;6.788;2022-11-15T15:28:12;2.30;;;1.90;;
55487;SDS011;41352;53.158;6.788;2022-11-15T15:30:38;3.13;;;2.00;;
55487;SDS011;41352;53.158;6.788;2022-11-15T15:33:04;5.22;;;2.05;;
55487;SDS011;41352;53.158;6.788;2022-11-15T15:35:30;1.80;;;1.45;;
55487;SDS011;41352;53.158;6.788;2022-11-15T15:37:58;3.05;;;2.50;;
55487;SDS011;41352;53.158;6.788;2022-11-15T15:40:24;3.10;;;2.38;;
55487;SDS011;41352;53.158;6.788;2022-11-15T15:42:51;4.65;;;2.10;;
55487;SDS011;41352;53.158;6.788;2022-11-15T15:45:17;2.63;;;2.13;;
55487;SDS011;41352;53.158;6.788;2022-11-15T15:47:47;5.97;;;2.53;;
55487;SDS011;41352;53.158;6.788;2022-11-15T15:50:21;2.60;;;2.00;;
55487;SDS011;41352;53.158;6.788;2022-11-15T15:52:49;3.97;;;2.30;;
55487;SDS011;41352;53.158;6.788;2022-11-15T15:55:17;3.92;;;2.67;;
55487;SDS011;41352;53.158;6.788;2022-11-15T16:00:12;2.90;;;2.60;;
55487;SDS011;41352;53.158;6.788;2022-11-15T16:02:38;4.88;;;3.22;;
55487;SDS011;41352;53.158;6.788;2022-11-15T16:05:11;3.70;;;2.58;;
55487;SDS011;41352;53.158;6.788;2022-11-15T16:07:37;2.85;;;2.35;;
55487;SDS011;41352;53.158;6.788;2022-11-15T16:10:21;4.05;;;2.67;;
55487;SDS011;41352;53.158;6.788;2022-11-15T16:12:47;5.95;;;2.42;;
55487;SDS011;41352;53.158;6.788;2022-11-15T16:15:13;5.57;;;3.28;;
55487;SDS011;41352;53.158;6.788;2022-11-15T16:20:08;3.35;;;2.72;;
55487;SDS011;41352;53.158;6.788;2022-11-15T16:22:48;5.55;;;2.72;;
55487;SDS011;41352;53.158;6.788;2022-11-15T16:25:14;3.50;;;3.20;;
55487;SDS011;41352;53.158;6.788;2022-11-15T16:27:40;6.57;;;3.50;;
55487;SDS011;41352;53.158;6.788;2022-11-15T16:30:12;3.88;;;3.15;;
55487;SDS011;41352;53.158;6.788;2022-11-15T16:32:40;4.43;;;3.25;;
55487;SDS011;41352;53.158;6.788;2022-11-15T16:35:06;3.47;;;2.58;;
55487;SDS011;41352;53.158;6.788;2022-11-15T16:37:35;2.95;;;2.70;;
55487;SDS011;41352;53.158;6.788;2022-11-15T16:40:01;2.92;;;2.42;;
55487;SDS011;41352;53.158;6.788;2022-11-15T16:42:27;3.00;;;2.70;;
55487;SDS011;41352;53.158;6.788;2022-11-15T16:44:52;3.13;;;2.55;;
55487;SDS011;41352;53.158;6.788;2022-11-15T16:47:18;4.10;;;2.65;;
55487;SDS011;41352;53.158;6.788;2022-11-15T16:49:45;2.92;;;2.63;;
55487;SDS011;41352;53.158;6.788;2022-11-15T16:52:11;2.30;;;2.10;;
55487;SDS011;41352;53.158;6.788;2022-11-15T16:54:37;3.28;;;2.80;;
55487;SDS011;41352;53.158;6.788;2022-11-15T16:57:03;2.83;;;2.42;;
55487;SDS011;41352;53.158;6.788;2022-11-15T16:59:29;4.07;;;2.60;;
55487;SDS011;41352;53.158;6.788;2022-11-15T17:01:57;3.38;;;2.80;;
55487;SDS011;41352;53.158;6.788;2022-11-15T17:04:23;2.45;;;2.15;;
55487;SDS011;41352;53.158;6.788;2022-11-15T17:06:51;2.72;;;2.08;;
55487;SDS011;41352;53.158;6.788;2022-11-15T17:09:21;3.22;;;2.13;;
55487;SDS011;41352;53.158;6.788;2022-11-15T17:11:51;4.15;;;2.13;;
55487;SDS011;41352;53.158;6.788;2022-11-15T17:14:17;4.93;;;2.30;;
55487;SDS011;41352;53.158;6.788;2022-11-15T17:19:13;2.38;;;2.08;;
55487;SDS011;41352;53.158;6.788;2022-11-15T17:21:40;6.35;;;2.50;;
55487;SDS011;41352;53.158;6.788;2022-11-15T17:24:11;3.30;;;1.73;;
55487;SDS011;41352;53.158;6.788;2022-11-15T17:26:37;3.72;;;1.88;;
55487;SDS011;41352;53.158;6.788;2022-11-15T17:29:03;5.20;;;2.45;;
55487;SDS011;41352;53.158;6.788;2022-11-15T17:31:32;3.90;;;2.15;;
55487;SDS011;41352;53.158;6.788;2022-11-15T17:34:00;6.25;;;3.08;;
55487;SDS011;41352;53.158;6.788;2022-11-15T17:36:27;2.28;;;1.85;;
55487;SDS011;41352;53.158;6.788;2022-11-15T17:38:53;3.78;;;2.05;;
55487;SDS011;41352;53.158;6.788;2022-11-15T17:41:18;4.78;;;2.63;;
55487;SDS011;41352;53.158;6.788;2022-11-15T17:43:47;4.03;;;2.25;;
55487;SDS011;41352;53.158;6.788;2022-11-15T17:46:15;6.38;;;1.67;;
55487;SDS011;41352;53.158;6.788;2022-11-15T17:48:47;2.13;;;1.70;;
55487;SDS011;41352;53.158;6.788;2022-11-15T17:51:15;2.58;;;1.60;;
55487;SDS011;41352;53.158;6.788;2022-11-15T17:53:46;4.28;;;1.63;;
55487;SDS011;41352;53.158;6.788;2022-11-15T17:56:14;2.17;;;1.58;;
55487;SDS011;41352;53.158;6.788;2022-11-15T17:58:41;3.10;;;1.67;;